Quincy, Illinois
Current Conditions -  °F | °C
As of 1:54 AM on Tuesday 21 Oct 2014 (Local Time) from KUIN Reporting Station
Clear Clear  
Wind Chill: 44°   Ceiling: Unl
Heat Index: 47°   Visibility: 10mi
Dew Point: 42°   Wind: 7mph
Humidity: 83%   Direction: 310°NW
Pressure: 30.04"   Gusts: NA
Location:  39.94°N, 91.39°W
Report Text: KUIN 210654Z AUTO 31006KT 10SM CLR 08/06 A3004 RMK AO2 SLP169 T00830056
Loading
Personal Weather Stations






























Interactive Weather Map New forecast layout! Learn more

10-Day Weather Forecast

Advertisements
Track Severe Weather on mobile